Time;durP1;ratioP1;P1;durP2;ratioP2;P2;SDS_P1;SDS_P2;PMS_P1;PMS_P2;Temp;Humidity;BMP_temperature;BMP_pressure;BME280_temperature;BME280_humidity;BME280_pressure;Samples;Min_cycle;Max_cycle;Signal;HPM_P1;HPM_P2
2022/05/01 00:01:07;;;;;;;;;6.50;6.00;;;;;14.03;30.74;101929.56;5062478;28;45245;-58
2022/05/01 00:03:35;;;;;;;;;4.50;4.50;;;;;14.00;30.94;101932.25;5062324;28;45465;-58
2022/05/01 00:06:04;;;;;;;;;9.00;7.25;;;;;13.97;30.68;101921.69;5062417;28;45335;-58
2022/05/01 00:08:30;;;;;;;;;8.50;6.00;;;;;13.95;31.00;101923.47;5060358;28;45439;-58
2022/05/01 00:10:56;;;;;;;;;6.25;6.25;;;;;13.93;30.72;101931.41;5062235;28;45481;-58
2022/05/01 00:13:22;;;;;;;;;6.25;6.25;;;;;13.90;31.14;101926.16;5062203;28;45215;-58
2022/05/01 00:15:48;;;;;;;;;9.00;7.75;;;;;13.87;30.90;101923.53;5062100;28;46296;-58
2022/05/01 00:18:14;;;;;;;;;8.50;7.75;;;;;13.84;31.08;101923.56;5062018;28;45258;-58
2022/05/01 00:20:40;;;;;;;;;7.00;7.00;;;;;13.83;31.04;101916.53;5062236;28;45142;-58
2022/05/01 00:23:05;;;;;;;;;8.25;8.25;;;;;13.77;31.01;101911.28;5062031;28;45209;-58
2022/05/01 00:25:31;;;;;;;;;5.25;4.50;;;;;13.78;31.02;101915.69;5043797;28;47018;-59
2022/05/01 00:27:57;;;;;;;;;8.00;6.75;;;;;13.76;30.95;101921.00;5062036;28;45255;-58
2022/05/01 00:30:22;;;;;;;;;9.00;8.00;;;;;13.72;31.09;101915.75;5062110;28;45340;-58
2022/05/01 00:38:15;;;;;;;;;6.75;5.00;;;;;13.59;31.34;101909.69;5061973;28;45329;-58
2022/05/01 00:40:41;;;;;;;;;9.50;9.50;;;;;13.55;31.46;101902.69;5043374;28;45318;-59
2022/05/01 00:43:06;;;;;;;;;7.25;7.00;;;;;13.56;31.51;101914.97;5043841;28;45250;-59
2022/05/01 00:45:32;;;;;;;;;5.00;4.50;;;;;13.53;31.70;101905.31;5043659;28;48002;-59
2022/05/01 00:47:58;;;;;;;;;8.00;6.00;;;;;13.47;31.57;101897.44;5061611;28;45368;-59
2022/05/01 00:50:24;;;;;;;;;4.50;4.50;;;;;13.48;31.70;101915.94;5061438;28;45352;-59
2022/05/01 00:52:50;;;;;;;;;10.00;10.00;;;;;13.45;31.79;101910.66;5043601;28;46237;-59
2022/05/01 00:55:16;;;;;;;;;10.25;10.25;;;;;13.38;31.88;101905.44;5043126;28;45510;-59
2022/05/01 00:57:44;;;;;;;;;8.50;7.25;;;;;13.40;31.71;101907.19;5061522;28;45382;-59
2022/05/01 01:00:10;;;;;;;;;6.75;5.00;;;;;13.39;32.07;101912.50;5061484;28;45324;-59
2022/05/01 01:02:37;;;;;;;;;7.75;7.75;;;;;13.35;32.01;101908.97;5043345;28;45455;-59
2022/05/01 01:05:03;;;;;;;;;8.75;8.75;;;;;13.29;31.99;101904.59;5061401;28;45302;-59
2022/05/01 01:07:28;;;;;;;;;6.00;6.00;;;;;13.28;32.00;101908.13;5023257;28;45425;-59
2022/05/01 01:09:53;;;;;;;;;8.50;8.50;;;;;13.23;31.98;101895.84;5040919;28;45768;-59
2022/05/01 01:15:08;;;;;;;;;9.25;8.50;;;;;13.17;31.90;101887.06;5041245;28;45494;-59
2022/05/01 01:17:36;;;;;;;;;11.25;10.50;;;;;13.18;32.03;101893.22;5040997;28;45262;-59
2022/05/01 01:20:11;;;;;;;;;7.75;7.00;;;;;13.15;32.40;101896.75;5023074;28;45245;-58
2022/05/01 01:22:38;;;;;;;;;11.00;8.50;;;;;13.13;32.21;101895.00;5040858;28;45535;-58
2022/05/01 01:25:05;;;;;;;;;9.50;9.50;;;;;13.10;32.40;101895.06;5040421;28;45361;-57
2022/05/01 01:27:30;;;;;;;;;11.25;9.25;;;;;13.07;32.65;101889.78;5032576;28;45455;-57
2022/05/01 01:32:40;;;;;;;;;10.75;8.50;;;;;12.99;32.36;101898.63;5040951;28;45353;-58
2022/05/01 01:35:09;;;;;;;;;10.25;9.50;;;;;12.96;32.47;101896.00;5040744;28;46977;-58
2022/05/01 01:37:35;;;;;;;;;8.50;8.50;;;;;12.94;32.52;101892.50;5040926;28;45230;-58
2022/05/01 01:40:01;;;;;;;;;9.25;9.25;;;;;12.91;32.48;101889.88;5040498;28;45236;-58
2022/05/01 01:42:30;;;;;;;;;9.25;8.50;;;;;12.88;32.72;101889.00;5040708;28;45383;-58
2022/05/01 01:44:56;;;;;;;;;13.50;11.00;;;;;12.81;32.69;101885.53;5040614;28;45526;-59
2022/05/01 01:47:22;;;;;;;;;9.50;9.25;;;;;12.80;32.78;101892.59;5040576;28;45329;-58
2022/05/01 01:49:47;;;;;;;;;13.00;12.00;;;;;12.77;32.84;101891.72;5040461;28;45218;-58
2022/05/01 01:52:13;;;;;;;;;8.00;8.00;;;;;12.73;32.53;101893.50;5034916;28;45267;-58
2022/05/01 01:54:38;;;;;;;;;11.25;10.25;;;;;12.66;32.83;101891.75;5040292;28;45749;-58
2022/05/01 01:57:05;;;;;;;;;9.75;9.75;;;;;12.64;32.75;101882.97;5040461;28;45301;-58
2022/05/01 01:59:30;;;;;;;;;12.00;10.00;;;;;12.64;32.98;101885.59;5021997;28;45270;-58
2022/05/01 02:01:55;;;;;;;;;7.75;7.50;;;;;12.62;33.06;101895.31;5040221;28;45175;-58
2022/05/01 02:04:21;;;;;;;;;13.25;13.25;;;;;12.59;33.07;101892.66;5028034;28;45854;-58
2022/05/01 02:06:46;;;;;;;;;13.25;11.25;;;;;12.55;33.14;101889.16;5042098;28;45459;-58
2022/05/01 02:09:13;;;;;;;;;10.75;10.25;;;;;12.53;33.12;101885.69;5060457;28;45268;-58
2022/05/01 02:11:38;;;;;;;;;11.00;9.75;;;;;12.50;33.21;101885.66;5060302;28;45431;-58
2022/05/01 02:14:05;;;;;;;;;8.50;8.50;;;;;12.46;33.21;101878.66;5060151;28;46177;-58
2022/05/01 02:16:31;;;;;;;;;11.00;11.00;;;;;12.44;33.27;101880.41;5060156;28;45383;-58
2022/05/01 02:18:57;;;;;;;;;10.50;9.50;;;;;12.42;33.33;101880.44;5042262;28;45325;-58
2022/05/01 02:21:35;;;;;;;;;9.00;9.00;;;;;12.40;32.77;101870.78;5059891;28;45240;-58
2022/05/01 02:24:05;;;;;;;;;13.00;10.25;;;;;12.35;33.39;101874.31;5059638;28;46330;-58
2022/05/01 02:26:30;;;;;;;;;8.50;8.50;;;;;12.33;33.48;101870.81;5060080;28;45424;-58
2022/05/01 02:28:57;;;;;;;;;10.25;10.00;;;;;12.31;33.65;101876.97;5060212;28;45956;-58
2022/05/01 02:31:22;;;;;;;;;15.50;12.75;;;;;12.29;33.56;101874.34;5059939;28;45602;-58
2022/05/01 02:33:48;;;;;;;;;12.75;11.25;;;;;12.28;33.62;101876.97;5059898;28;45248;-58
2022/05/01 02:36:15;;;;;;;;;9.00;9.00;;;;;12.25;33.62;101875.25;5060008;28;45251;-58
2022/05/01 02:38:41;;;;;;;;;11.50;10.00;;;;;12.21;33.45;101868.19;5060061;28;45230;-58
2022/05/01 02:41:06;;;;;;;;;11.25;11.25;;;;;12.21;33.70;101870.84;5059603;28;45165;-58
2022/05/01 02:43:31;;;;;;;;;14.00;12.75;;;;;12.16;33.87;101860.31;5060004;28;45248;-58
2022/05/01 02:45:57;;;;;;;;;10.75;10.75;;;;;12.17;33.75;101858.56;5059936;28;45235;-58
2022/05/01 02:48:22;;;;;;;;;12.00;11.75;;;;;12.13;33.91;101857.69;5060469;28;45505;-58
2022/05/01 02:50:47;;;;;;;;;12.50;12.25;;;;;12.12;33.89;101855.94;5059573;28;45319;-59
2022/05/01 02:53:13;;;;;;;;;11.75;11.50;;;;;12.11;34.04;101848.94;5059845;28;45339;-59
2022/05/01 02:55:38;;;;;;;;;14.75;13.00;;;;;12.09;34.09;101855.06;5059483;28;45336;-59
2022/05/01 02:58:04;;;;;;;;;11.50;11.25;;;;;12.06;34.07;101857.72;5060133;28;45402;-58
2022/05/01 03:00:29;;;;;;;;;9.75;9.75;;;;;12.03;34.17;101855.97;5041643;28;45514;-58
2022/05/01 03:02:57;;;;;;;;;14.25;12.75;;;;;12.01;34.10;101852.44;5041506;28;46794;-58
2022/05/01 03:05:26;;;;;;;;;10.50;10.50;;;;;11.96;34.22;101844.56;5025391;28;45259;-58
2022/05/01 03:07:55;;;;;;;;;10.00;10.00;;;;;11.97;34.29;101848.06;5058028;28;45287;-58
2022/05/01 03:10:22;;;;;;;;;10.25;10.25;;;;;11.95;34.30;101853.31;5041037;28;45400;-58
2022/05/01 03:12:47;;;;;;;;;14.25;13.50;;;;;11.93;34.42;101847.16;5062768;28;46275;-58
2022/05/01 03:15:13;;;;;;;;;13.50;12.75;;;;;11.92;34.33;101842.78;5063081;28;45368;-58
2022/05/01 03:23:06;;;;;;;;;15.00;12.25;;;;;11.85;34.61;101846.31;5062850;28;45329;-58
2022/05/01 03:25:32;;;;;;;;;13.50;10.75;;;;;11.84;34.51;101841.94;5062671;28;45341;-58
2022/05/01 03:27:58;;;;;;;;;13.50;13.50;;;;;11.81;34.55;101845.44;5063190;28;45404;-58
2022/05/01 03:30:24;;;;;;;;;15.25;14.00;;;;;11.77;34.43;101832.28;5063035;28;45574;-58
2022/05/01 03:32:49;;;;;;;;;15.25;13.75;;;;;11.75;34.73;101834.03;5044526;28;46146;-58
2022/05/01 03:35:16;;;;;;;;;15.25;12.50;;;;;11.77;34.68;101834.91;5063002;28;45392;-58
2022/05/01 03:37:44;;;;;;;;;10.00;10.00;;;;;11.74;34.72;101832.28;5062942;28;45272;-58
2022/05/01 03:40:13;;;;;;;;;12.50;12.00;;;;;11.74;34.87;101835.78;5062452;28;45323;-58
2022/05/01 03:42:38;;;;;;;;;11.50;10.25;;;;;11.67;34.83;101827.03;5062642;28;46041;-58
2022/05/01 03:45:04;;;;;;;;;12.00;11.50;;;;;11.69;34.84;101829.66;5062829;28;45344;-58
2022/05/01 03:47:29;;;;;;;;;12.75;12.75;;;;;11.66;35.10;101830.53;5062807;28;45166;-58
2022/05/01 03:49:54;;;;;;;;;10.75;10.75;;;;;11.65;35.03;101827.91;5062622;28;45219;-58
2022/05/01 03:52:20;;;;;;;;;12.75;11.00;;;;;11.63;35.24;101822.63;5062565;28;45230;-58
2022/05/01 03:54:45;;;;;;;;;9.25;9.25;;;;;11.61;35.06;101824.41;5062357;28;45281;-58
2022/05/01 03:57:11;;;;;;;;;10.75;10.75;;;;;11.55;35.16;101816.50;5062598;28;46059;-58
2022/05/01 03:59:36;;;;;;;;;12.50;12.00;;;;;11.57;35.09;101821.78;5062633;28;45245;-58
2022/05/01 04:02:02;;;;;;;;;12.25;11.00;;;;;11.55;35.35;101827.03;5060987;28;46175;-58
2022/05/01 04:04:27;;;;;;;;;12.00;10.75;;;;;11.53;35.17;101819.16;5062605;28;45235;-58
2022/05/01 04:06:52;;;;;;;;;13.00;11.25;;;;;11.49;35.12;101822.66;5043622;28;45443;-58
2022/05/01 04:09:18;;;;;;;;;11.75;11.00;;;;;11.46;35.30;101820.03;5062186;28;45440;-58
2022/05/01 04:11:43;;;;;;;;;14.25;13.50;;;;;11.47;35.29;101826.16;5061933;28;46294;-58
2022/05/01 04:14:08;;;;;;;;;14.75;14.75;;;;;11.44;35.41;101824.41;5062214;28;45356;-58
2022/05/01 04:16:34;;;;;;;;;13.75;11.25;;;;;11.40;35.47;101816.53;5044183;28;45339;-58
2022/05/01 04:18:59;;;;;;;;;13.25;12.00;;;;;11.37;35.39;101812.13;5062325;28;45406;-58
2022/05/01 04:21:24;;;;;;;;;11.25;11.25;;;;;11.38;35.51;101817.41;5043617;28;45428;-59
2022/05/01 04:23:50;;;;;;;;;13.25;11.75;;;;;11.38;35.53;101825.31;5061825;28;45371;-59
2022/05/01 04:26:16;;;;;;;;;13.00;13.00;;;;;11.36;35.41;101824.41;5062066;28;45300;-59
2022/05/01 04:29:36;;;;;;;;;14.75;13.50;;;;;11.35;35.64;101821.78;5043954;28;45328;-59
2022/05/01 04:31:27;;;;;;;;;14.75;13.25;;;;;11.31;35.68;101823.53;5061713;28;45802;-58
2022/05/01 04:33:53;;;;;;;;;8.00;8.00;;;;;11.31;35.51;101826.19;5061907;28;45257;-59
2022/05/01 04:36:18;;;;;;;;;13.25;11.50;;;;;11.30;35.59;101828.81;5061846;28;45482;-59
2022/05/01 04:38:44;;;;;;;;;11.50;10.50;;;;;11.27;35.72;101821.78;5061893;28;45384;-58
2022/05/01 04:41:09;;;;;;;;;11.75;10.75;;;;;11.21;35.88;101820.03;5061454;28;45447;-58
2022/05/01 04:43:36;;;;;;;;;13.75;13.00;;;;;11.26;35.70;101830.56;5060423;28;45321;-58
2022/05/01 04:46:02;;;;;;;;;14.25;14.00;;;;;11.25;35.83;101822.69;5061873;28;45175;-58
2022/05/01 04:48:28;;;;;;;;;15.25;14.00;;;;;11.23;35.65;101827.91;5061627;28;45548;-58
2022/05/01 04:50:54;;;;;;;;;10.00;10.00;;;;;11.18;35.88;101817.41;5061394;28;46022;-58
2022/05/01 04:53:21;;;;;;;;;13.75;13.50;;;;;11.21;36.04;101829.69;5061553;28;45455;-58
2022/05/01 04:55:49;;;;;;;;;14.00;14.00;;;;;11.16;35.96;101820.91;5061480;28;45324;-58
2022/05/01 04:58:15;;;;;;;;;12.00;11.50;;;;;11.15;36.13;101827.06;5043378;28;45264;-58
2022/05/01 05:00:42;;;;;;;;;14.75;12.75;;;;;11.17;35.93;101825.28;5061226;28;45271;-58
2022/05/01 05:03:07;;;;;;;;;10.25;10.00;;;;;11.14;36.23;101817.41;5061457;28;45245;-58
2022/05/01 05:05:36;;;;;;;;;16.25;14.25;;;;;11.15;35.94;101827.06;5061345;28;45352;-58
2022/05/01 05:10:48;;;;;;;;;11.25;11.25;;;;;11.13;36.29;101834.06;5061095;28;45688;-59
2022/05/01 05:13:27;;;;;;;;;17.00;17.00;;;;;11.12;36.27;101841.06;5061190;28;45265;-59
2022/05/01 05:15:59;;;;;;;;;13.50;11.00;;;;;11.09;36.18;101838.44;5061493;28;45547;-59
2022/05/01 05:18:25;;;;;;;;;18.00;15.75;;;;;11.12;36.31;101850.72;5044137;28;45181;-58
2022/05/01 05:20:51;;;;;;;;;17.50;14.25;;;;;11.11;36.22;101846.34;5060816;28;46597;-59
2022/05/01 05:23:17;;;;;;;;;15.75;14.00;;;;;11.12;36.22;101845.44;5060942;28;45306;-59
2022/05/01 05:25:42;;;;;;;;;11.50;10.25;;;;;11.09;36.40;101838.44;5061209;28;45241;-58
2022/05/01 05:28:08;;;;;;;;;13.00;13.00;;;;;11.13;36.33;101855.09;5061040;28;45422;-58
2022/05/01 05:30:33;;;;;;;;;15.25;13.00;;;;;11.14;36.37;101846.34;5060992;28;45983;-58
2022/05/01 05:32:59;;;;;;;;;18.00;14.50;;;;;11.15;36.48;101858.63;5060528;28;45396;-58
2022/05/01 05:35:24;;;;;;;;;18.75;16.75;;;;;11.15;36.49;101859.47;5060496;28;45320;-58
2022/05/01 05:37:50;;;;;;;;;17.00;14.00;;;;;11.15;36.46;101861.25;5060960;28;45412;-58
2022/05/01 05:40:15;;;;;;;;;17.00;14.25;;;;;11.15;36.67;101864.75;5060418;28;46070;-59
2022/05/01 05:42:41;;;;;;;;;16.25;13.75;;;;;11.17;36.63;101868.28;5060851;28;45361;-58
2022/05/01 05:45:07;;;;;;;;;10.00;8.75;;;;;11.19;36.43;101871.78;5061070;28;45363;-59
2022/05/01 05:47:32;;;;;;;;;13.25;12.50;;;;;11.21;36.83;101877.03;5060786;28;45343;-58
2022/05/01 05:49:57;;;;;;;;;13.50;12.25;;;;;11.23;36.64;101872.63;5060866;28;45321;-58
2022/05/01 05:52:23;;;;;;;;;13.25;13.25;;;;;11.23;36.59;101872.63;5060725;28;45241;-59
2022/05/01 05:54:48;;;;;;;;;13.50;13.50;;;;;11.20;36.77;101857.72;5060625;28;45231;-58
2022/05/01 05:57:13;;;;;;;;;19.75;17.25;;;;;11.26;36.65;101856.88;5060568;28;45388;-58
2022/05/01 05:59:39;;;;;;;;;17.25;16.25;;;;;11.30;36.87;101860.38;5059374;28;45919;-56
2022/05/01 06:02:04;;;;;;;;;15.00;14.00;;;;;11.32;36.88;101855.97;5060648;28;45227;-56
2022/05/01 06:04:30;;;;;;;;;15.50;14.00;;;;;11.32;36.67;101859.50;5060837;28;45486;-56
2022/05/01 06:06:55;;;;;;;;;17.25;15.25;;;;;11.36;36.95;101852.50;5058993;28;45340;-68
2022/05/01 06:09:21;;;;;;;;;15.00;15.00;;;;;11.37;36.79;101847.22;5060271;28;46299;-58
2022/05/01 06:11:46;;;;;;;;;14.25;12.00;;;;;11.40;36.87;101843.72;5060485;28;45419;-56
2022/05/01 06:14:11;;;;;;;;;17.50;16.00;;;;;11.42;36.90;101846.34;5060631;28;45182;-60
2022/05/01 06:16:38;;;;;;;;;19.75;19.75;;;;;11.44;36.97;101841.97;5060414;28;45249;-56
2022/05/01 06:19:04;;;;;;;;;19.50;15.00;;;;;11.45;36.97;101847.22;5060277;28;46064;-56
2022/05/01 06:21:29;;;;;;;;;18.75;17.00;;;;;11.47;36.86;101850.75;5060007;28;45312;-57
2022/05/01 06:23:54;;;;;;;;;16.75;14.75;;;;;11.54;37.06;101849.84;5060280;28;45319;-57
2022/05/01 06:26:20;;;;;;;;;17.75;15.50;;;;;11.57;37.11;101862.13;5060101;28;45411;-57
2022/05/01 06:28:47;;;;;;;;;18.50;16.75;;;;;11.61;37.08;101866.53;5060261;28;46029;-57
2022/05/01 06:31:13;;;;;;;;;20.25;18.00;;;;;11.65;36.95;101860.38;5041965;28;45280;-55
2022/05/01 06:33:40;;;;;;;;;17.75;17.25;;;;;11.70;37.26;101860.38;5060154;28;45186;-56
2022/05/01 06:36:07;;;;;;;;;21.00;21.00;;;;;11.73;37.47;101860.38;5060061;28;45454;-61
2022/05/01 06:38:33;;;;;;;;;19.00;16.00;;;;;11.79;37.07;101856.88;5041711;28;48431;-66
2022/05/01 06:40:58;;;;;;;;;20.00;19.00;;;;;11.81;37.06;101868.25;5059561;28;45431;-66
2022/05/01 06:43:23;;;;;;;;;15.50;15.50;;;;;11.87;37.26;101858.59;5035998;28;45370;-60
2022/05/01 06:45:49;;;;;;;;;19.50;18.75;;;;;11.90;37.20;101857.72;5048222;28;45643;-67
2022/05/01 06:48:14;;;;;;;;;18.50;16.50;;;;;11.98;37.22;101865.63;5053346;28;46022;-65
2022/05/01 06:50:40;;;;;;;;;19.25;19.00;;;;;12.00;37.08;101862.13;5044802;28;45428;-68
2022/05/01 06:53:06;;;;;;;;;17.25;16.50;;;;;12.11;37.24;101874.38;5058033;28;45455;-63
2022/05/01 06:55:32;;;;;;;;;19.00;18.50;;;;;12.16;37.26;101872.59;5046985;28;45305;-69
2022/05/01 06:57:57;;;;;;;;;22.50;19.25;;;;;12.22;37.68;101879.63;5046009;28;45608;-69
2022/05/01 07:00:24;;;;;;;;;20.50;19.00;;;;;12.29;37.25;101876.06;5055776;28;45490;-64
2022/05/01 07:02:53;;;;;;;;;19.75;19.75;;;;;12.33;37.30;101876.06;5053790;28;45173;-69
2022/05/01 07:05:20;;;;;;;;;22.25;19.00;;;;;12.42;37.35;101882.22;5029168;28;45412;-70
2022/05/01 07:07:47;;;;;;;;;20.00;20.00;;;;;12.46;37.01;101873.41;5053654;28;45302;-69
2022/05/01 07:10:13;;;;;;;;;16.50;16.50;;;;;12.53;37.23;101867.22;5038033;28;45476;-66
2022/05/01 07:12:38;;;;;;;;;19.75;18.00;;;;;12.58;37.16;101859.25;5035011;28;45274;-65
2022/05/01 07:15:05;;;;;;;;;23.00;18.75;;;;;12.63;37.34;101857.50;5052725;28;45233;-65
2022/05/01 07:17:31;;;;;;;;;18.50;18.00;;;;;12.71;37.29;101860.97;5039176;28;47309;-65
2022/05/01 07:19:56;;;;;;;;;21.50;17.00;;;;;12.78;37.28;101860.06;5039702;28;45259;-64
2022/05/01 07:22:25;;;;;;;;;18.00;17.00;;;;;12.86;37.26;101861.78;5038138;28;45399;-64
2022/05/01 07:24:50;;;;;;;;;21.00;20.00;;;;;12.94;37.49;101865.22;5052280;28;45403;-58
2022/05/01 07:27:16;;;;;;;;;17.50;15.75;;;;;12.97;37.14;101867.88;5046316;28;46178;-64
2022/05/01 07:29:41;;;;;;;;;19.75;18.25;;;;;13.06;37.34;101862.53;5045433;28;45285;-63
2022/05/01 07:32:07;;;;;;;;;21.75;17.00;;;;;13.14;37.43;101867.75;5052334;28;45440;-61
2022/05/01 07:34:32;;;;;;;;;23.00;19.75;;;;;13.20;37.21;101857.16;5052239;28;45514;-60
2022/05/01 07:36:57;;;;;;;;;16.75;16.25;;;;;13.27;37.12;101865.88;5046182;28;46445;-61
2022/05/01 07:39:23;;;;;;;;;19.75;18.75;;;;;13.32;37.42;101854.41;5045324;28;45317;-60
2022/05/01 07:41:48;;;;;;;;;18.75;17.75;;;;;13.42;37.33;101859.66;5052128;28;46450;-60
2022/05/01 07:44:14;;;;;;;;;21.50;18.25;;;;;13.47;37.44;101860.47;5051426;28;45417;-59
2022/05/01 07:46:40;;;;;;;;;15.50;15.00;;;;;13.56;37.22;101865.69;5057582;28;45434;-47
2022/05/01 07:49:06;;;;;;;;;15.75;15.00;;;;;13.61;37.12;101863.91;5058785;28;45232;-50
2022/05/01 07:51:32;;;;;;;;;14.50;14.00;;;;;13.67;37.27;101854.16;5057752;28;45159;-50
2022/05/01 07:53:58;;;;;;;;;15.75;13.25;;;;;13.76;37.46;101856.69;5043838;28;45312;-51
2022/05/01 07:56:27;;;;;;;;;16.25;16.00;;;;;13.85;37.66;101858.38;5048747;28;45533;-70
2022/05/01 07:58:53;;;;;;;;;16.50;15.25;;;;;13.93;37.17;101852.13;5055729;28;45429;-59
2022/05/01 08:01:18;;;;;;;;;16.50;16.25;;;;;14.00;36.87;101847.66;5051759;28;45436;-58
2022/05/01 08:06:35;;;;;;;;;18.00;17.00;;;;;14.15;37.34;101857.19;5019666;28;45510;-58
2022/05/01 08:09:02;;;;;;;;;16.00;14.00;;;;;14.20;37.32;101847.44;5059964;28;45486;-58
2022/05/01 08:11:28;;;;;;;;;19.00;15.00;;;;;14.24;37.44;101846.50;5052572;28;45340;-59
2022/05/01 08:13:53;;;;;;;;;17.50;16.50;;;;;14.34;37.25;101846.38;5035628;28;45234;-58
2022/05/01 08:16:20;;;;;;;;;14.00;13.75;;;;;14.38;36.91;101843.69;5039952;28;47585;-59
2022/05/01 08:21:32;;;;;;;;;19.00;18.25;;;;;14.55;36.90;101839.94;5055399;28;45371;-59
2022/05/01 08:23:58;;;;;;;;;21.75;17.25;;;;;14.62;36.94;101837.19;5050317;28;45504;-59
2022/05/01 08:26:24;;;;;;;;;17.25;16.00;;;;;14.71;37.14;101840.66;5037750;28;47107;-58
2022/05/01 08:28:52;;;;;;;;;16.50;15.75;;;;;14.76;37.12;101839.69;5050431;28;45342;-58
2022/05/01 08:31:18;;;;;;;;;22.50;20.50;;;;;14.79;36.56;101829.06;5054414;28;45353;-58
2022/05/01 08:33:43;;;;;;;;;21.75;21.25;;;;;14.88;36.62;101830.72;5049630;28;45248;-59
2022/05/01 08:36:08;;;;;;;;;17.00;17.00;;;;;14.93;36.75;101823.56;5054514;28;45518;-58
2022/05/01 08:38:37;;;;;;;;;15.50;15.50;;;;;14.99;36.80;101824.38;5049207;28;45146;-58
2022/05/01 08:41:03;;;;;;;;;17.00;17.00;;;;;15.06;36.33;101820.75;5055582;28;45265;-59
2022/05/01 08:43:28;;;;;;;;;17.25;15.50;;;;;15.08;36.44;101809.22;5060493;28;45470;-57
2022/05/01 08:46:04;;;;;;;;;22.50;16.50;;;;;15.18;36.83;101817.00;5051874;28;45329;-58
2022/05/01 08:48:36;;;;;;;;;17.50;16.00;;;;;15.25;36.21;101818.66;5049616;28;45313;-58
2022/05/01 08:51:02;;;;;;;;;12.75;12.25;;;;;15.33;36.60;101813.22;5061237;28;45601;-59
2022/05/01 08:53:29;;;;;;;;;16.25;15.00;;;;;15.41;36.21;101821.94;5053449;28;45424;-59
2022/05/01 08:55:55;;;;;;;;;16.00;14.50;;;;;15.48;36.70;101822.69;5050032;28;46684;-58
2022/05/01 08:58:22;;;;;;;;;20.00;17.00;;;;;15.54;36.34;101815.50;5061317;28;45397;-58
2022/05/01 09:00:49;;;;;;;;;16.25;11.25;;;;;15.63;36.27;101817.09;5061293;28;45344;-59
2022/05/01 09:03:16;;;;;;;;;16.75;16.25;;;;;15.71;36.27;101814.31;5060980;28;45182;-55
2022/05/01 09:05:41;;;;;;;;;21.00;18.50;;;;;15.76;36.53;101813.34;5060891;28;45308;-57
2022/05/01 09:08:07;;;;;;;;;20.50;17.00;;;;;15.85;36.41;101811.47;5042216;28;45376;-56
2022/05/01 09:10:33;;;;;;;;;23.75;18.50;;;;;15.91;36.27;101809.56;5057229;28;45446;-58
2022/05/01 09:12:59;;;;;;;;;22.75;20.25;;;;;15.98;36.02;101815.59;5048535;28;45505;-59
2022/05/01 09:15:35;;;;;;;;;20.75;17.50;;;;;16.04;35.99;101802.22;5040953;28;46085;-62
2022/05/01 09:18:08;;;;;;;;;17.00;15.25;;;;;16.12;36.31;101802.06;5041226;28;45376;-59
2022/05/01 09:20:36;;;;;;;;;19.00;19.00;;;;;16.18;36.03;101801.94;5051781;28;45427;-59
2022/05/01 09:23:02;;;;;;;;;20.75;19.75;;;;;16.27;35.94;101800.88;5040257;28;45375;-60
2022/05/01 09:25:29;;;;;;;;;16.50;16.00;;;;;16.26;35.66;101791.16;5040032;28;45449;-60
2022/05/01 09:28:01;;;;;;;;;17.25;15.75;;;;;16.39;35.92;101794.47;5034851;28;46093;-60
2022/05/01 09:30:35;;;;;;;;;18.50;17.00;;;;;16.49;35.41;101798.66;5040891;28;45343;-61
2022/05/01 09:33:02;;;;;;;;;17.50;15.25;;;;;16.57;35.73;101794.03;5040444;28;45317;-59
2022/05/01 09:35:35;;;;;;;;;18.00;16.00;;;;;16.66;35.60;101800.91;5040470;28;45313;-61
2022/05/01 09:38:23;;;;;;;;;14.25;14.25;;;;;16.78;35.73;101785.59;5063925;28;45459;-61
2022/05/01 09:40:58;;;;;;;;;15.00;15.00;;;;;16.90;35.35;101788.84;5040408;28;45251;-61
2022/05/01 09:43:36;;;;;;;;;33.25;27.75;;;;;17.05;35.57;101784.09;5032279;28;45412;-61
2022/05/01 09:46:18;;;;;;;;;14.00;13.25;;;;;17.20;35.71;101785.50;5036791;28;45654;-61
2022/05/01 09:49:05;;;;;;;;;17.75;15.50;;;;;17.34;35.35;101777.19;5042598;28;45191;-61
2022/05/01 09:51:33;;;;;;;;;20.25;19.25;;;;;17.50;35.03;101789.13;5045264;28;45313;-61
2022/05/01 09:54:00;;;;;;;;;21.00;16.25;;;;;17.64;35.26;101780.78;5055748;28;45485;-61
2022/05/01 09:56:26;;;;;;;;;15.00;15.00;;;;;17.79;35.05;101775.97;5050249;28;45339;-61
2022/05/01 09:59:01;;;;;;;;;18.50;16.75;;;;;17.94;34.79;101774.72;5047629;28;45321;-61
2022/05/01 10:01:30;;;;;;;;;15.50;15.50;;;;;18.08;34.77;101775.16;5040669;28;45392;-61
2022/05/01 10:04:00;;;;;;;;;14.00;12.75;;;;;18.22;34.88;101776.56;5040268;28;45240;-61
2022/05/01 10:06:28;;;;;;;;;21.00;19.00;;;;;18.34;34.79;101774.41;5040102;28;46354;-59
2022/05/01 10:08:55;;;;;;;;;14.75;11.00;;;;;18.48;34.88;101762.47;5039988;28;45422;-59
2022/05/01 10:11:23;;;;;;;;;17.50;15.25;;;;;18.61;34.47;101768.25;5040252;28;45399;-59
2022/05/01 10:13:49;;;;;;;;;17.00;15.75;;;;;18.74;34.22;101766.97;5038056;28;45379;-60
2022/05/01 10:16:17;;;;;;;;;17.00;15.75;;;;;18.88;34.21;101765.63;5039801;28;45543;-59
2022/05/01 10:18:45;;;;;;;;;15.25;15.25;;;;;19.00;34.38;101759.94;5038550;28;45293;-59
2022/05/01 10:21:11;;;;;;;;;16.25;15.50;;;;;19.14;34.01;101760.34;5039464;28;45416;-60
2022/05/01 10:23:37;;;;;;;;;13.00;12.25;;;;;19.31;34.15;101759.75;5025214;28;45292;-60
2022/05/01 10:26:11;;;;;;;;;14.00;11.75;;;;;19.55;34.41;101748.28;5039596;28;45933;-60
2022/05/01 10:28:48;;;;;;;;;15.25;15.00;;;;;19.87;34.47;101752.44;5039956;28;45339;-61
2022/05/01 10:34:50;;;;;;;;;16.00;13.50;;;;;20.56;34.35;101740.03;5039655;28;45320;-61
2022/05/01 10:37:53;;;;;;;;;15.00;12.50;;;;;20.90;33.50;101734.19;5039592;28;45616;-60
2022/05/01 10:40:19;;;;;;;;;14.50;13.00;;;;;21.23;34.05;101725.69;5050637;28;45450;-60
2022/05/01 10:42:50;;;;;;;;;13.50;12.00;;;;;21.59;34.03;101732.19;5060040;28;45407;-61
2022/05/01 10:45:22;;;;;;;;;17.75;16.25;;;;;22.03;33.69;101731.06;5041742;28;45455;-61
2022/05/01 10:47:51;;;;;;;;;15.50;15.25;;;;;22.45;33.75;101718.41;5059681;28;46239;-61
2022/05/01 10:50:35;;;;;;;;;13.25;12.50;;;;;22.99;33.74;101711.25;5041525;28;45359;-61
2022/05/01 10:53:14;;;;;;;;;19.50;14.25;;;;;23.47;33.20;101716.81;5059613;28;46925;-61
2022/05/01 10:55:42;;;;;;;;;11.00;11.00;;;;;23.95;33.00;101710.69;5059606;28;45387;-61
2022/05/01 10:58:34;;;;;;;;;14.75;14.75;;;;;24.43;33.06;101714.25;5050587;28;46141;-61
2022/05/01 11:01:00;;;;;;;;;40.50;30.00;;;;;24.77;32.86;101708.78;5050023;28;45403;-61
2022/05/01 11:03:28;;;;;;;;;46.50;34.00;;;;;25.07;32.23;101705.19;5039735;28;45440;-61
2022/05/01 11:06:08;;;;;;;;;27.25;24.75;;;;;25.39;32.41;101705.09;5039659;28;45554;-61
2022/05/01 11:08:36;;;;;;;;;20.25;18.75;;;;;25.73;32.04;101716.44;5032526;28;48234;-61
2022/05/01 11:11:05;;;;;;;;;18.75;15.00;;;;;26.05;32.00;101705.44;5039339;28;45353;-61
2022/05/01 11:13:36;;;;;;;;;21.50;19.50;;;;;26.31;31.10;101698.38;5039423;28;45179;-61
2022/05/01 11:16:04;;;;;;;;;14.25;14.25;;;;;26.48;31.52;101691.00;5037129;28;45278;-61
2022/05/01 11:18:39;;;;;;;;;31.50;29.25;;;;;26.57;31.10;101693.09;5037893;28;45969;-61
2022/05/01 11:21:19;;;;;;;;;17.00;15.00;;;;;26.58;30.27;101692.13;5039350;28;45373;-61
2022/05/01 11:23:46;;;;;;;;;18.25;15.25;;;;;26.54;30.62;101683.38;5039182;28;45379;-62
2022/05/01 11:26:17;;;;;;;;;16.00;13.25;;;;;26.54;30.36;101682.50;5039253;28;45343;-61
2022/05/01 11:28:50;;;;;;;;;13.00;13.00;;;;;26.51;30.29;101680.03;5039347;28;45344;-61
2022/05/01 11:31:37;;;;;;;;;18.25;18.25;;;;;26.50;30.24;101681.00;5032323;28;45205;-61
2022/05/01 11:34:31;;;;;;;;;56.50;40.00;;;;;26.57;29.43;101676.94;5032505;28;45410;-61
2022/05/01 11:37:05;;;;;;;;;43.75;36.00;;;;;26.72;29.57;101681.25;5049294;28;45261;-61
2022/05/01 11:39:59;;;;;;;;;34.75;31.00;;;;;27.03;29.83;101670.22;5062322;28;45278;-61
2022/05/01 11:42:35;;;;;;;;;15.00;14.25;;;;;27.24;29.68;101665.16;5053356;28;45372;-61